Priest Lake, Idaho
Current Conditions -  °F | °C
As of 11:55 PM on Friday 24 Oct 2014 (Local Time) from KSZT Reporting Station
Light Rain Light Rain  
Wind Chill: 41°   Ceiling: 6000
Heat Index: 46°   Visibility: 10mi
Dew Point: 39°   Wind: 12mph
Humidity: 76%   Direction: 20°NNE
Pressure: 30"   Gusts: 16mph
Location:  48.339°N, 116.856°W
Report Text: KSZT 250655Z AUTO 02010G14KT 10SM -RA SCT046 OVC060 08/04 A3000 RMK AO2
Loading
Personal Weather Stations






























Interactive Weather Map
Tropical Storm Tracking
New forecast layout! Learn more

10-Day Weather Forecast

Advertisements
Track Severe Weather on mobile